Time;durP1;ratioP1;P1;durP2;ratioP2;P2;SDS_P1;SDS_P2;PMS_P1;PMS_P2;Temp;Humidity;BMP_temperature;BMP_pressure;BME280_temperature;BME280_humidity;BME280_pressure;Samples;Min_cycle;Max_cycle;Signal;HPM_P1;HPM_P2
2022/11/26 00:01:19;;;;;;;0.00;0.00;;;;;;;;;;5014157;28;20378;-74
2022/11/26 00:03:46;;;;;;;0.00;0.00;;;;;;;;;;5011627;28;20021;-74
2022/11/26 00:06:28;;;;;;;0.00;0.00;;;;;;;;;;5010038;28;20026;-74
2022/11/26 00:08:54;;;;;;;0.00;0.00;;;;;;;;;;5026081;28;20026;-74
2022/11/26 00:11:21;;;;;;;0.00;0.00;;;;;;;;;;5011024;28;20041;-74
2022/11/26 00:13:47;;;;;;;0.00;0.00;;;;;;;;;;5018592;28;20036;-75
2022/11/26 00:16:14;;;;;;;0.00;0.00;;;;;;;;;;5009333;28;20026;-74
2022/11/26 00:18:43;;;;;;;0.00;0.00;;;;;;;;;;5022288;28;20026;-74
2022/11/26 00:21:17;;;;;;;0.00;0.00;;;;;;;;;;5003585;28;20124;-74
2022/11/26 00:23:44;;;;;;;0.00;0.00;;;;;;;;;;5022238;28;20014;-74
2022/11/26 00:26:14;;;;;;;0.00;0.00;;;;;;;;;;5003452;28;20030;-75
2022/11/26 00:28:41;;;;;;;0.00;0.00;;;;;;;;;;5004025;28;20464;-74
2022/11/26 00:31:13;;;;;;;0.00;0.00;;;;;;;;;;5004353;28;20029;-75
2022/11/26 00:33:40;;;;;;;0.00;0.00;;;;;;;;;;5014787;28;20033;-75
2022/11/26 00:36:14;;;;;;;0.00;0.00;;;;;;;;;;5032701;28;20048;-76
2022/11/26 00:38:40;;;;;;;0.00;0.00;;;;;;;;;;5014485;28;20029;-75
2022/11/26 00:41:10;;;;;;;0.00;0.00;;;;;;;;;;5002726;28;20038;-76
2022/11/26 00:43:36;;;;;;;0.00;0.00;;;;;;;;;;5032415;28;20471;-76
2022/11/26 00:46:02;;;;;;;0.00;0.00;;;;;;;;;;5014590;28;20594;-76
2022/11/26 00:48:29;;;;;;;0.00;0.00;;;;;;;;;;5032299;28;20071;-76
2022/11/26 00:50:55;;;;;;;0.00;0.00;;;;;;;;;;5014827;28;20079;-76
2022/11/26 00:53:24;;;;;;;0.00;0.00;;;;;;;;;;5014585;28;20033;-76
2022/11/26 00:55:51;;;;;;;0.00;0.00;;;;;;;;;;5032775;28;20030;-76
2022/11/26 00:58:28;;;;;;;0.00;0.00;;;;;;;;;;5031817;28;20548;-76
2022/11/26 01:00:55;;;;;;;0.00;0.00;;;;;;;;;;5004762;28;20077;-75
2022/11/26 01:03:22;;;;;;;0.00;0.00;;;;;;;;;;5030169;28;20022;-75
2022/11/26 01:05:52;;;;;;;0.00;0.00;;;;;;;;;;5007041;28;20025;-75
2022/11/26 01:08:28;;;;;;;0.00;0.00;;;;;;;;;;5008902;28;20363;-76
2022/11/26 01:10:54;;;;;;;0.00;0.00;;;;;;;;;;5008575;28;20371;-76
2022/11/26 01:13:21;;;;;;;0.00;0.00;;;;;;;;;;5005889;28;20045;-76
2022/11/26 01:15:47;;;;;;;0.00;0.00;;;;;;;;;;5005524;28;20499;-76
2022/11/26 01:18:18;;;;;;;0.00;0.00;;;;;;;;;;5009495;28;20160;-76
2022/11/26 01:20:44;;;;;;;0.00;0.00;;;;;;;;;;5006989;28;20091;-76
2022/11/26 01:23:12;;;;;;;0.00;0.00;;;;;;;;;;5006882;28;20026;-77
2022/11/26 01:25:38;;;;;;;0.00;0.00;;;;;;;;;;5008796;28;20552;-77
2022/11/26 01:28:05;;;;;;;0.00;0.00;;;;;;;;;;5005290;28;20474;-77
2022/11/26 01:30:32;;;;;;;0.00;0.00;;;;;;;;;;5008989;28;20037;-76
2022/11/26 01:32:59;;;;;;;0.00;0.00;;;;;;;;;;5024321;28;20069;-77
2022/11/26 01:35:26;;;;;;;0.00;0.00;;;;;;;;;;5025284;28;20057;-77
2022/11/26 01:37:53;;;;;;;0.00;0.00;;;;;;;;;;5022552;28;20037;-76
2022/11/26 01:40:25;;;;;;;0.00;0.00;;;;;;;;;;5005895;28;20112;-75
2022/11/26 01:43:15;;;;;;;0.00;0.00;;;;;;;;;;5006435;28;20061;-75
2022/11/26 01:45:41;;;;;;;0.00;0.00;;;;;;;;;;5010294;28;20532;-75
2022/11/26 01:48:28;;;;;;;0.00;0.00;;;;;;;;;;5025181;28;20105;-75
2022/11/26 01:50:57;;;;;;;0.00;0.00;;;;;;;;;;5006012;28;20021;-74
2022/11/26 01:53:32;;;;;;;0.00;0.00;;;;;;;;;;5008313;28;20032;-75
2022/11/26 01:56:00;;;;;;;0.00;0.00;;;;;;;;;;5007744;28;20373;-75
2022/11/26 01:58:40;;;;;;;0.00;0.00;;;;;;;;;;5006881;28;20057;-75
2022/11/26 02:01:06;;;;;;;0.00;0.00;;;;;;;;;;5006759;28;20041;-75
2022/11/26 02:03:37;;;;;;;0.00;0.00;;;;;;;;;;5005692;28;20351;-75
2022/11/26 02:06:04;;;;;;;0.00;0.00;;;;;;;;;;5006333;28;20067;-75
2022/11/26 02:08:33;;;;;;;0.00;0.00;;;;;;;;;;5005935;28;20022;-75
2022/11/26 02:10:59;;;;;;;0.00;0.00;;;;;;;;;;5029873;28;20034;-75
2022/11/26 02:13:26;;;;;;;0.00;0.00;;;;;;;;;;5008096;28;20045;-76
2022/11/26 02:16:01;;;;;;;0.00;0.00;;;;;;;;;;5009550;28;20041;-74
2022/11/26 02:18:31;;;;;;;0.00;0.00;;;;;;;;;;5003931;28;20037;-75
2022/11/26 02:21:03;;;;;;;0.00;0.00;;;;;;;;;;5013472;28;20037;-75
2022/11/26 02:23:35;;;;;;;0.00;0.00;;;;;;;;;;5005170;28;20025;-75
2022/11/26 02:26:20;;;;;;;0.00;0.00;;;;;;;;;;5007698;28;20029;-75
2022/11/26 02:28:56;;;;;;;0.00;0.00;;;;;;;;;;5013304;28;20047;-75
2022/11/26 02:31:42;;;;;;;0.00;0.00;;;;;;;;;;5009324;28;20033;-75
2022/11/26 02:34:21;;;;;;;0.00;0.00;;;;;;;;;;5017887;28;20037;-75
2022/11/26 02:36:51;;;;;;;0.00;0.00;;;;;;;;;;5011964;28;20399;-75
2022/11/26 02:39:19;;;;;;;0.00;0.00;;;;;;;;;;5012739;28;20502;-76
2022/11/26 02:41:46;;;;;;;0.00;0.00;;;;;;;;;;5014356;28;20030;-75
2022/11/26 02:44:14;;;;;;;0.00;0.00;;;;;;;;;;5003675;28;20025;-75
2022/11/26 02:46:41;;;;;;;0.00;0.00;;;;;;;;;;5005424;28;20139;-75
2022/11/26 02:49:09;;;;;;;0.00;0.00;;;;;;;;;;5007049;28;20036;-75
2022/11/26 02:51:35;;;;;;;0.00;0.00;;;;;;;;;;5021916;28;20026;-75
2022/11/26 02:54:02;;;;;;;0.00;0.00;;;;;;;;;;5005844;28;20030;-75
2022/11/26 02:56:28;;;;;;;0.00;0.00;;;;;;;;;;5001467;28;20030;-75
2022/11/26 02:58:56;;;;;;;0.00;0.00;;;;;;;;;;5015251;28;20065;-76
2022/11/26 03:01:40;;;;;;;0.00;0.00;;;;;;;;;;4995490;28;20507;-76
2022/11/26 03:04:09;;;;;;;0.00;0.00;;;;;;;;;;5001514;28;20114;-75
2022/11/26 03:06:35;;;;;;;0.00;0.00;;;;;;;;;;5005285;28;20018;-75
2022/11/26 03:09:02;;;;;;;0.00;0.00;;;;;;;;;;5001931;28;20030;-75
2022/11/26 03:11:28;;;;;;;0.00;0.00;;;;;;;;;;5002256;28;20048;-75
2022/11/26 03:13:54;;;;;;;0.00;0.00;;;;;;;;;;5001519;28;20030;-74
2022/11/26 03:16:21;;;;;;;0.00;0.00;;;;;;;;;;4997380;28;20037;-75
2022/11/26 03:18:47;;;;;;;0.00;0.00;;;;;;;;;;4998374;28;20037;-76
2022/11/26 03:21:13;;;;;;;0.00;0.00;;;;;;;;;;5000140;28;20025;-75
2022/11/26 03:23:40;;;;;;;0.00;0.00;;;;;;;;;;4999769;28;20026;-75
2022/11/26 03:26:06;;;;;;;0.00;0.00;;;;;;;;;;5000937;28;20037;-75
2022/11/26 03:28:32;;;;;;;0.00;0.00;;;;;;;;;;4998219;28;20475;-75
2022/11/26 03:30:59;;;;;;;0.00;0.00;;;;;;;;;;5002248;28;20065;-75
2022/11/26 03:33:25;;;;;;;0.00;0.00;;;;;;;;;;5002102;28;20029;-76
2022/11/26 03:35:51;;;;;;;0.00;0.00;;;;;;;;;;4999616;28;20041;-74
2022/11/26 03:38:18;;;;;;;0.00;0.00;;;;;;;;;;4998486;28;20038;-75
2022/11/26 03:40:44;;;;;;;0.00;0.00;;;;;;;;;;5007538;28;20048;-75
2022/11/26 03:43:10;;;;;;;0.00;0.00;;;;;;;;;;4999410;28;20081;-76
2022/11/26 03:45:37;;;;;;;0.00;0.00;;;;;;;;;;5003163;28;20035;-78
2022/11/26 03:48:03;;;;;;;0.00;0.00;;;;;;;;;;4999881;28;20384;-76
2022/11/26 03:50:29;;;;;;;0.00;0.00;;;;;;;;;;4996450;28;20046;-76
2022/11/26 03:52:56;;;;;;;0.00;0.00;;;;;;;;;;4998281;28;20041;-77
2022/11/26 03:55:22;;;;;;;0.00;0.00;;;;;;;;;;4996210;28;20058;-75
2022/11/26 03:57:49;;;;;;;0.00;0.00;;;;;;;;;;5003743;28;20030;-77
2022/11/26 04:00:16;;;;;;;0.00;0.00;;;;;;;;;;4996520;28;20460;-76
2022/11/26 04:02:42;;;;;;;0.00;0.00;;;;;;;;;;4999034;28;20034;-76
2022/11/26 04:05:09;;;;;;;0.00;0.00;;;;;;;;;;5008661;28;20021;-76
2022/11/26 04:07:35;;;;;;;0.00;0.00;;;;;;;;;;5008743;28;20032;-76
2022/11/26 04:10:01;;;;;;;0.00;0.00;;;;;;;;;;4994433;28;20030;-76
2022/11/26 04:12:28;;;;;;;0.00;0.00;;;;;;;;;;5007287;28;20409;-75
2022/11/26 04:14:54;;;;;;;0.00;0.00;;;;;;;;;;5024364;28;20018;-77
2022/11/26 04:17:20;;;;;;;0.00;0.00;;;;;;;;;;5012340;28;20438;-75
2022/11/26 04:19:47;;;;;;;0.00;0.00;;;;;;;;;;5003566;28;20069;-76
2022/11/26 04:22:13;;;;;;;0.00;0.00;;;;;;;;;;4999189;28;20036;-77
2022/11/26 04:24:39;;;;;;;0.00;0.00;;;;;;;;;;4998085;28;20109;-78
2022/11/26 04:27:06;;;;;;;0.00;0.00;;;;;;;;;;5000458;28;20038;-77
2022/11/26 04:29:32;;;;;;;0.00;0.00;;;;;;;;;;5004430;28;20483;-77
2022/11/26 04:31:58;;;;;;;0.00;0.00;;;;;;;;;;5007154;28;20277;-77
2022/11/26 04:34:25;;;;;;;0.00;0.00;;;;;;;;;;5000039;28;20054;-75
2022/11/26 04:36:51;;;;;;;0.00;0.00;;;;;;;;;;4995751;28;20074;-76
2022/11/26 04:39:17;;;;;;;0.00;0.00;;;;;;;;;;4995325;28;20515;-75
2022/11/26 04:41:44;;;;;;;0.00;0.00;;;;;;;;;;5010692;28;20137;-76
2022/11/26 04:44:10;;;;;;;0.00;0.00;;;;;;;;;;5000697;28;20038;-76
2022/11/26 04:46:36;;;;;;;0.00;0.00;;;;;;;;;;4995562;28;20027;-75
2022/11/26 04:49:03;;;;;;;0.00;0.00;;;;;;;;;;5002161;28;20034;-76
2022/11/26 04:51:29;;;;;;;0.00;0.00;;;;;;;;;;5004692;28;20050;-75
2022/11/26 04:53:56;;;;;;;0.00;0.00;;;;;;;;;;5006482;28;20033;-76
2022/11/26 04:56:22;;;;;;;0.00;0.00;;;;;;;;;;5006056;28;20036;-76
2022/11/26 04:58:49;;;;;;;0.00;0.00;;;;;;;;;;5004640;28;20037;-75
2022/11/26 05:01:15;;;;;;;0.00;0.00;;;;;;;;;;5003909;28;20042;-75
2022/11/26 05:03:41;;;;;;;0.00;0.00;;;;;;;;;;5003670;28;20037;-76
2022/11/26 05:06:09;;;;;;;0.00;0.00;;;;;;;;;;5010963;28;20058;-76
2022/11/26 05:08:35;;;;;;;0.00;0.00;;;;;;;;;;5010916;28;20109;-75
2022/11/26 05:11:02;;;;;;;0.00;0.00;;;;;;;;;;5007478;28;20038;-76
2022/11/26 05:13:28;;;;;;;0.00;0.00;;;;;;;;;;5010775;28;20096;-75
2022/11/26 05:15:55;;;;;;;0.00;0.00;;;;;;;;;;5008361;28;20400;-75
2022/11/26 05:18:21;;;;;;;0.00;0.00;;;;;;;;;;5005152;28;20037;-75
2022/11/26 05:20:47;;;;;;;0.00;0.00;;;;;;;;;;5008950;28;20045;-76
2022/11/26 05:23:14;;;;;;;0.00;0.00;;;;;;;;;;5005861;28;20026;-75
2022/11/26 05:25:40;;;;;;;0.00;0.00;;;;;;;;;;4995868;28;20028;-76
2022/11/26 05:28:07;;;;;;;0.00;0.00;;;;;;;;;;4995290;28;20030;-75
2022/11/26 05:30:33;;;;;;;0.00;0.00;;;;;;;;;;4997755;28;20030;-75
2022/11/26 05:32:59;;;;;;;0.00;0.00;;;;;;;;;;5004898;28;20052;-76
2022/11/26 05:35:26;;;;;;;0.00;0.00;;;;;;;;;;5012188;28;20034;-75
2022/11/26 05:37:52;;;;;;;0.00;0.00;;;;;;;;;;5003892;28;20041;-77
2022/11/26 05:40:18;;;;;;;0.00;0.00;;;;;;;;;;4996311;28;20030;-76
2022/11/26 05:42:45;;;;;;;0.00;0.00;;;;;;;;;;5006088;28;20037;-75
2022/11/26 05:45:11;;;;;;;0.00;0.00;;;;;;;;;;5005072;28;20034;-77
2022/11/26 05:47:37;;;;;;;0.00;0.00;;;;;;;;;;5005350;28;20361;-76
2022/11/26 05:50:04;;;;;;;0.00;0.00;;;;;;;;;;4994893;28;20030;-76
2022/11/26 05:52:30;;;;;;;0.00;0.00;;;;;;;;;;4999712;28;20026;-76
2022/11/26 05:54:57;;;;;;;0.00;0.00;;;;;;;;;;4996810;28;20085;-76
2022/11/26 05:57:23;;;;;;;0.00;0.00;;;;;;;;;;4998775;28;20647;-76
2022/11/26 05:59:49;;;;;;;0.00;0.00;;;;;;;;;;4997488;28;20480;-76
2022/11/26 06:02:16;;;;;;;0.00;0.00;;;;;;;;;;5000639;28;20073;-76
2022/11/26 06:04:42;;;;;;;0.00;0.00;;;;;;;;;;5007893;28;20131;-76
2022/11/26 06:07:09;;;;;;;0.00;0.00;;;;;;;;;;5001277;28;20101;-76
2022/11/26 06:09:35;;;;;;;0.00;0.00;;;;;;;;;;5002512;28;20026;-77
2022/11/26 06:12:02;;;;;;;0.00;0.00;;;;;;;;;;5002189;28;20123;-76
2022/11/26 06:14:28;;;;;;;0.00;0.00;;;;;;;;;;4997973;28;20038;-77
2022/11/26 06:16:55;;;;;;;0.00;0.00;;;;;;;;;;5015339;28;20081;-75
2022/11/26 06:19:21;;;;;;;0.00;0.00;;;;;;;;;;5007169;28;20025;-75
2022/11/26 06:21:48;;;;;;;0.00;0.00;;;;;;;;;;5004225;28;20118;-73
2022/11/26 06:24:14;;;;;;;0.00;0.00;;;;;;;;;;5005262;28;20080;-74
2022/11/26 06:26:40;;;;;;;0.00;0.00;;;;;;;;;;5003674;28;20026;-74
2022/11/26 06:29:07;;;;;;;0.00;0.00;;;;;;;;;;5008717;28;20054;-74
2022/11/26 06:31:33;;;;;;;0.00;0.00;;;;;;;;;;5004809;28;20480;-75
2022/11/26 06:33:59;;;;;;;0.00;0.00;;;;;;;;;;5009548;28;20026;-73
2022/11/26 06:36:26;;;;;;;0.00;0.00;;;;;;;;;;5005297;28;20057;-76
2022/11/26 06:38:52;;;;;;;0.00;0.00;;;;;;;;;;5004417;28;20030;-74
2022/11/26 06:41:18;;;;;;;0.00;0.00;;;;;;;;;;5000784;28;20088;-75
2022/11/26 06:43:45;;;;;;;0.00;0.00;;;;;;;;;;5003381;28;20391;-73
2022/11/26 06:46:12;;;;;;;0.00;0.00;;;;;;;;;;5005012;28;20022;-74
2022/11/26 06:48:39;;;;;;;0.00;0.00;;;;;;;;;;5004251;28;20025;-75
2022/11/26 06:51:05;;;;;;;0.00;0.00;;;;;;;;;;5005423;28;20033;-77
2022/11/26 06:53:32;;;;;;;0.00;0.00;;;;;;;;;;5004273;28;20081;-76
2022/11/26 06:56:09;;;;;;;0.00;0.00;;;;;;;;;;4996942;28;20037;-75
2022/11/26 06:58:36;;;;;;;0.00;0.00;;;;;;;;;;5003456;28;20034;-75
2022/11/26 07:01:09;;;;;;;0.00;0.00;;;;;;;;;;5021152;28;20128;-75
2022/11/26 07:03:36;;;;;;;0.00;0.00;;;;;;;;;;5011321;28;20021;-75
2022/11/26 07:06:02;;;;;;;0.00;0.00;;;;;;;;;;5012721;28;20030;-75
2022/11/26 07:08:29;;;;;;;0.00;0.00;;;;;;;;;;5009711;28;20029;-75
2022/11/26 07:10:55;;;;;;;0.00;0.00;;;;;;;;;;5023067;28;20029;-75
2022/11/26 07:13:21;;;;;;;0.00;0.00;;;;;;;;;;5027627;28;20126;-75
2022/11/26 07:15:48;;;;;;;0.00;0.00;;;;;;;;;;5032215;28;20069;-75
2022/11/26 07:18:14;;;;;;;0.00;0.00;;;;;;;;;;5015733;28;20115;-75
2022/11/26 07:20:40;;;;;;;0.00;0.00;;;;;;;;;;5007558;28;20033;-75
2022/11/26 07:23:07;;;;;;;0.00;0.00;;;;;;;;;;5028131;28;20383;-75
2022/11/26 07:25:33;;;;;;;0.00;0.00;;;;;;;;;;5023830;28;20021;-75
2022/11/26 07:27:59;;;;;;;0.00;0.00;;;;;;;;;;5014680;28;20104;-77
2022/11/26 07:30:25;;;;;;;0.00;0.00;;;;;;;;;;4999768;28;20099;-75
2022/11/26 07:32:52;;;;;;;0.00;0.00;;;;;;;;;;5018740;28;20084;-76
2022/11/26 07:35:18;;;;;;;0.00;0.00;;;;;;;;;;5022621;28;20077;-75
2022/11/26 07:37:44;;;;;;;0.00;0.00;;;;;;;;;;5018929;28;20026;-76
2022/11/26 07:40:11;;;;;;;0.00;0.00;;;;;;;;;;5011390;28;20128;-74
2022/11/26 07:42:37;;;;;;;0.00;0.00;;;;;;;;;;5008121;28;20047;-75
2022/11/26 07:45:04;;;;;;;0.00;0.00;;;;;;;;;;5007068;28;20017;-75
2022/11/26 07:47:30;;;;;;;0.00;0.00;;;;;;;;;;5003231;28;20025;-75
2022/11/26 07:49:57;;;;;;;0.00;0.00;;;;;;;;;;5009126;28;21458;-77
2022/11/26 07:52:23;;;;;;;0.00;0.00;;;;;;;;;;5005677;28;20395;-77
2022/11/26 07:54:49;;;;;;;0.00;0.00;;;;;;;;;;4999496;28;20037;-77
2022/11/26 07:57:17;;;;;;;0.00;0.00;;;;;;;;;;5004239;28;20033;-75
2022/11/26 07:59:43;;;;;;;0.00;0.00;;;;;;;;;;5001440;28;20054;-77
2022/11/26 08:02:13;;;;;;;0.00;0.00;;;;;;;;;;5007105;28;20113;-77
2022/11/26 08:04:40;;;;;;;0.00;0.00;;;;;;;;;;5012780;28;20025;-77
2022/11/26 08:07:06;;;;;;;0.00;0.00;;;;;;;;;;5022588;28;20022;-71
2022/11/26 08:09:32;;;;;;;0.00;0.00;;;;;;;;;;5006760;28;20037;-72
2022/11/26 08:11:58;;;;;;;0.00;0.00;;;;;;;;;;5024673;28;20033;-75
2022/11/26 08:14:25;;;;;;;0.00;0.00;;;;;;;;;;5002411;28;21552;-75
2022/11/26 08:16:51;;;;;;;0.00;0.00;;;;;;;;;;5006945;28;20058;-75
2022/11/26 08:19:17;;;;;;;0.00;0.00;;;;;;;;;;5005026;28;20033;-76
2022/11/26 08:21:44;;;;;;;0.00;0.00;;;;;;;;;;5011839;28;20026;-75
2022/11/26 08:24:15;;;;;;;0.00;0.00;;;;;;;;;;4996806;28;20033;-74
2022/11/26 08:26:41;;;;;;;0.00;0.00;;;;;;;;;;5000522;28;20025;-73
2022/11/26 08:29:08;;;;;;;0.00;0.00;;;;;;;;;;4998667;28;20041;-73
2022/11/26 08:31:35;;;;;;;0.00;0.00;;;;;;;;;;5026973;28;20030;-73
2022/11/26 08:34:04;;;;;;;0.00;0.00;;;;;;;;;;5021764;28;20022;-73
2022/11/26 08:36:31;;;;;;;0.00;0.00;;;;;;;;;;5006580;28;20044;-73
2022/11/26 08:38:58;;;;;;;0.00;0.00;;;;;;;;;;5003275;28;20041;-72
2022/11/26 08:41:24;;;;;;;0.00;0.00;;;;;;;;;;5004782;28;20379;-73
2022/11/26 08:43:50;;;;;;;0.00;0.00;;;;;;;;;;5022711;28;20481;-71
2022/11/26 08:46:17;;;;;;;0.00;0.00;;;;;;;;;;5003247;28;20026;-71
2022/11/26 08:48:44;;;;;;;0.00;0.00;;;;;;;;;;5004990;28;20018;-72
2022/11/26 08:51:11;;;;;;;0.00;0.00;;;;;;;;;;5002252;28;20546;-72
2022/11/26 08:53:38;;;;;;;0.00;0.00;;;;;;;;;;5024909;28;20072;-72
2022/11/26 08:56:06;;;;;;;0.00;0.00;;;;;;;;;;5023325;28;20030;-72
2022/11/26 08:58:33;;;;;;;0.00;0.00;;;;;;;;;;5001454;28;20113;-72
2022/11/26 09:00:59;;;;;;;0.00;0.00;;;;;;;;;;5006330;28;20046;-72
2022/11/26 09:03:26;;;;;;;0.00;0.00;;;;;;;;;;5012874;28;20028;-74
2022/11/26 09:05:52;;;;;;;0.00;0.00;;;;;;;;;;5008700;28;20029;-73
2022/11/26 09:08:18;;;;;;;0.00;0.00;;;;;;;;;;5022864;28;20487;-72
2022/11/26 09:10:53;;;;;;;0.00;0.00;;;;;;;;;;5002593;28;20037;-73
2022/11/26 09:13:19;;;;;;;0.00;0.00;;;;;;;;;;5020042;28;20068;-73
2022/11/26 09:15:45;;;;;;;0.00;0.00;;;;;;;;;;5002649;28;20072;-73
2022/11/26 09:18:11;;;;;;;0.00;0.00;;;;;;;;;;5018966;28;20030;-72
2022/11/26 09:21:15;;;;;;;0.00;0.00;;;;;;;;;;5008723;28;20072;-70
2022/11/26 09:23:41;;;;;;;0.00;0.00;;;;;;;;;;5011369;28;20036;-72
2022/11/26 09:26:08;;;;;;;0.00;0.00;;;;;;;;;;5008374;28;20053;-73
2022/11/26 09:28:35;;;;;;;0.00;0.00;;;;;;;;;;5011348;28;20087;-70
2022/11/26 09:31:01;;;;;;;0.00;0.00;;;;;;;;;;5027879;28;20037;-72
2022/11/26 09:33:28;;;;;;;0.00;0.00;;;;;;;;;;5007815;28;20424;-71
2022/11/26 09:36:02;;;;;;;0.00;0.00;;;;;;;;;;5028715;28;20041;-72
2022/11/26 09:38:28;;;;;;;0.00;0.00;;;;;;;;;;5014984;28;20637;-73
2022/11/26 09:41:10;;;;;;;0.00;0.00;;;;;;;;;;5008671;28;20029;-71
2022/11/26 09:43:39;;;;;;;0.00;0.00;;;;;;;;;;5013769;28;20041;-71
2022/11/26 09:46:06;;;;;;;0.00;0.00;;;;;;;;;;5010047;28;20054;-71
2022/11/26 09:48:33;;;;;;;0.00;0.00;;;;;;;;;;5009011;28;20138;-71
2022/11/26 09:51:04;;;;;;;0.00;0.00;;;;;;;;;;5029510;28;20435;-72
2022/11/26 09:53:39;;;;;;;0.00;0.00;;;;;;;;;;5001860;28;20098;-72
2022/11/26 09:56:09;;;;;;;0.00;0.00;;;;;;;;;;5007612;28;20105;-71
2022/11/26 09:58:44;;;;;;;0.00;0.00;;;;;;;;;;5005396;28;20035;-71
2022/11/26 10:01:14;;;;;;;0.00;0.00;;;;;;;;;;5008897;28;20512;-71
2022/11/26 10:03:48;;;;;;;0.00;0.00;;;;;;;;;;5001424;28;20082;-70
2022/11/26 10:06:26;;;;;;;0.00;0.00;;;;;;;;;;5022694;28;20380;-72
2022/11/26 10:09:00;;;;;;;0.00;0.00;;;;;;;;;;5010059;28;20041;-72
2022/11/26 10:11:30;;;;;;;0.00;0.00;;;;;;;;;;5033121;28;20025;-73
2022/11/26 10:14:14;;;;;;;0.00;0.00;;;;;;;;;;5031982;28;20045;-71
2022/11/26 10:16:56;;;;;;;0.00;0.00;;;;;;;;;;5027642;28;20025;-72
2022/11/26 10:19:22;;;;;;;0.00;0.00;;;;;;;;;;5004122;28;20038;-71
2022/11/26 10:21:51;;;;;;;0.00;0.00;;;;;;;;;;5001821;28;20060;-73
2022/11/26 10:24:29;;;;;;;0.00;0.00;;;;;;;;;;5021805;28;20080;-71
2022/11/26 10:26:56;;;;;;;0.00;0.00;;;;;;;;;;5010686;28;20033;-72
2022/11/26 10:29:28;;;;;;;0.00;0.00;;;;;;;;;;5008714;28;20074;-72
2022/11/26 10:31:59;;;;;;;0.00;0.00;;;;;;;;;;5002838;28;20470;-72
2022/11/26 10:34:39;;;;;;;0.00;0.00;;;;;;;;;;5026330;28;20503;-72
2022/11/26 10:37:05;;;;;;;0.00;0.00;;;;;;;;;;5018907;28;20117;-73
2022/11/26 10:39:31;;;;;;;0.00;0.00;;;;;;;;;;5004359;28;20034;-72
2022/11/26 10:42:03;;;;;;;0.00;0.00;;;;;;;;;;5002790;28;20034;-73
2022/11/26 10:44:40;;;;;;;0.00;0.00;;;;;;;;;;5007002;28;20030;-71
2022/11/26 10:47:33;;;;;;;0.00;0.00;;;;;;;;;;5001907;28;20162;-71
2022/11/26 10:50:02;;;;;;;0.00;0.00;;;;;;;;;;5003220;28;20488;-71
2022/11/26 10:52:30;;;;;;;0.00;0.00;;;;;;;;;;5008601;28;20403;-71
2022/11/26 10:55:07;;;;;;;0.00;0.00;;;;;;;;;;4996306;28;20399;-71
2022/11/26 10:57:36;;;;;;;0.00;0.00;;;;;;;;;;5013369;28;20111;-71
2022/11/26 11:00:03;;;;;;;0.00;0.00;;;;;;;;;;5008668;28;20073;-72
2022/11/26 11:02:40;;;;;;;0.00;0.00;;;;;;;;;;5004381;28;20037;-72
2022/11/26 11:05:08;;;;;;;0.00;0.00;;;;;;;;;;5003107;28;20164;-77
2022/11/26 11:07:38;;;;;;;0.00;0.00;;;;;;;;;;5008739;28;20099;-73
2022/11/26 11:10:08;;;;;;;0.00;0.00;;;;;;;;;;5020647;28;20091;-74
2022/11/26 11:12:35;;;;;;;0.00;0.00;;;;;;;;;;5013539;28;20041;-74
2022/11/26 11:15:20;;;;;;;0.00;0.00;;;;;;;;;;5026580;28;20025;-73
2022/11/26 11:17:53;;;;;;;0.00;0.00;;;;;;;;;;5004125;28;20033;-73
2022/11/26 11:20:43;;;;;;;0.00;0.00;;;;;;;;;;5009111;28;20537;-74
2022/11/26 11:23:09;;;;;;;0.00;0.00;;;;;;;;;;5021259;28;20025;-73
2022/11/26 11:25:38;;;;;;;0.00;0.00;;;;;;;;;;5000766;28;20029;-74
2022/11/26 11:28:04;;;;;;;0.00;0.00;;;;;;;;;;5017948;28;20025;-72
2022/11/26 11:30:33;;;;;;;0.00;0.00;;;;;;;;;;5021465;28;20022;-72
2022/11/26 11:33:10;;;;;;;0.00;0.00;;;;;;;;;;4999333;28;20417;-72
2022/11/26 11:35:36;;;;;;;0.00;0.00;;;;;;;;;;4997464;28;20036;-72
2022/11/26 11:38:03;;;;;;;0.00;0.00;;;;;;;;;;5012658;28;20116;-72
2022/11/26 11:40:32;;;;;;;0.00;0.00;;;;;;;;;;5008841;28;20033;-72
2022/11/26 11:43:05;;;;;;;0.00;0.00;;;;;;;;;;5006091;28;20078;-72
2022/11/26 11:45:40;;;;;;;0.00;0.00;;;;;;;;;;5005169;28;20026;-71
2022/11/26 11:48:27;;;;;;;0.00;0.00;;;;;;;;;;5010598;28;20025;-72
2022/11/26 11:51:13;;;;;;;0.00;0.00;;;;;;;;;;5009178;28;20380;-72
2022/11/26 11:53:39;;;;;;;0.00;0.00;;;;;;;;;;5008047;28;20112;-71
2022/11/26 11:56:08;;;;;;;0.00;0.00;;;;;;;;;;5030146;28;20025;-72
2022/11/26 11:58:36;;;;;;;0.00;0.00;;;;;;;;;;5019446;28;20030;-71
2022/11/26 12:01:09;;;;;;;0.00;0.00;;;;;;;;;;5026000;28;20112;-71
2022/11/26 12:03:37;;;;;;;0.00;0.00;;;;;;;;;;4999147;28;20042;-72
2022/11/26 12:06:15;;;;;;;0.00;0.00;;;;;;;;;;5004142;28;20468;-71
2022/11/26 12:08:41;;;;;;;0.00;0.00;;;;;;;;;;4995202;28;20496;-75
2022/11/26 12:11:08;;;;;;;0.00;0.00;;;;;;;;;;4995319;28;20037;-73
2022/11/26 12:13:46;;;;;;;0.00;0.00;;;;;;;;;;5012974;28;20464;-73
2022/11/26 12:16:14;;;;;;;0.00;0.00;;;;;;;;;;5000921;28;20044;-71
2022/11/26 12:18:58;;;;;;;0.00;0.00;;;;;;;;;;5005055;28;20117;-74
2022/11/26 12:21:45;;;;;;;0.00;0.00;;;;;;;;;;5001279;28;20566;-71
2022/11/26 12:24:30;;;;;;;0.00;0.00;;;;;;;;;;5025678;28;20041;-72
2022/11/26 12:26:59;;;;;;;0.00;0.00;;;;;;;;;;5012908;28;20029;-73
2022/11/26 12:29:38;;;;;;;0.00;0.00;;;;;;;;;;5010085;28;20058;-73
2022/11/26 12:32:11;;;;;;;0.00;0.00;;;;;;;;;;5003583;28;20034;-73
2022/11/26 12:34:42;;;;;;;0.00;0.00;;;;;;;;;;5007126;28;20483;-73
2022/11/26 12:37:12;;;;;;;0.00;0.00;;;;;;;;;;5008183;28;20048;-73
2022/11/26 12:39:56;;;;;;;0.00;0.00;;;;;;;;;;5008104;28;20039;-73
2022/11/26 12:42:43;;;;;;;0.00;0.00;;;;;;;;;;5010223;28;20044;-73
2022/11/26 12:45:18;;;;;;;0.00;0.00;;;;;;;;;;5003793;28;20121;-72
2022/11/26 12:47:58;;;;;;;0.00;0.00;;;;;;;;;;5020174;28;20384;-73
2022/11/26 12:50:37;;;;;;;0.00;0.00;;;;;;;;;;5025244;28;20032;-72
2022/11/26 12:53:23;;;;;;;0.00;0.00;;;;;;;;;;5010265;28;20423;-72
2022/11/26 12:55:56;;;;;;;0.00;0.00;;;;;;;;;;5007638;28;20037;-72
2022/11/26 12:58:28;;;;;;;0.00;0.00;;;;;;;;;;5005429;28;20033;-72
2022/11/26 13:00:55;;;;;;;0.00;0.00;;;;;;;;;;5011322;28;20108;-72
2022/11/26 13:03:29;;;;;;;0.00;0.00;;;;;;;;;;5008196;28;20033;-72
2022/11/26 13:06:14;;;;;;;0.00;0.00;;;;;;;;;;5006181;28;20034;-73
2022/11/26 13:09:07;;;;;;;0.00;0.00;;;;;;;;;;5008454;28;20084;-71
2022/11/26 13:11:33;;;;;;;0.00;0.00;;;;;;;;;;4978092;28;20072;-71
2022/11/26 13:14:14;;;;;;;0.00;0.00;;;;;;;;;;5014636;28;20061;-73
2022/11/26 13:16:43;;;;;;;0.00;0.00;;;;;;;;;;5003475;28;20469;-72
2022/11/26 13:19:22;;;;;;;0.00;0.00;;;;;;;;;;4994879;28;20026;-72
2022/11/26 13:21:51;;;;;;;0.00;0.00;;;;;;;;;;4999324;28;20038;-73
2022/11/26 13:24:24;;;;;;;0.00;0.00;;;;;;;;;;5003269;28;20366;-72
2022/11/26 13:26:56;;;;;;;0.00;0.00;;;;;;;;;;5006007;28;20121;-73
2022/11/26 13:29:31;;;;;;;0.00;0.00;;;;;;;;;;5012330;28;20468;-73
2022/11/26 13:32:18;;;;;;;0.00;0.00;;;;;;;;;;5013757;28;20041;-72
2022/11/26 13:34:44;;;;;;;0.00;0.00;;;;;;;;;;5015651;28;20026;-72
2022/11/26 13:37:14;;;;;;;0.00;0.00;;;;;;;;;;5013839;28;20041;-72
2022/11/26 13:39:59;;;;;;;0.00;0.00;;;;;;;;;;5014110;28;20534;-72
2022/11/26 13:42:40;;;;;;;0.00;0.00;;;;;;;;;;5015391;28;20022;-73
2022/11/26 13:45:25;;;;;;;0.00;0.00;;;;;;;;;;5014292;28;20479;-72
2022/11/26 13:47:59;;;;;;;0.00;0.00;;;;;;;;;;5015447;28;20455;-73
2022/11/26 13:50:25;;;;;;;0.00;0.00;;;;;;;;;;5014070;28;20504;-72
2022/11/26 13:52:51;;;;;;;0.00;0.00;;;;;;;;;;5013777;28;20034;-73
2022/11/26 13:55:22;;;;;;;0.00;0.00;;;;;;;;;;5015144;28;20408;-72
2022/11/26 13:57:56;;;;;;;0.00;0.00;;;;;;;;;;5013893;28;20053;-74
2022/11/26 14:00:24;;;;;;;0.00;0.00;;;;;;;;;;5024017;28;20057;-73
2022/11/26 14:02:50;;;;;;;0.00;0.00;;;;;;;;;;5016919;28;20036;-73
2022/11/26 14:05:17;;;;;;;0.00;0.00;;;;;;;;;;5034562;28;20682;-74
2022/11/26 14:07:44;;;;;;;0.00;0.00;;;;;;;;;;5035708;28;20034;-74
2022/11/26 14:10:40;;;;;;;0.00;0.00;;;;;;;;;;5017488;28;20036;-73
2022/11/26 14:13:10;;;;;;;0.00;0.00;;;;;;;;;;5016473;28;20029;-74
2022/11/26 14:15:42;;;;;;;0.00;0.00;;;;;;;;;;5016997;28;20071;-73
2022/11/26 14:18:09;;;;;;;0.00;0.00;;;;;;;;;;5042313;28;20093;-74
2022/11/26 14:20:54;;;;;;;0.00;0.00;;;;;;;;;;5034265;28;20102;-73
2022/11/26 14:23:39;;;;;;;0.00;0.00;;;;;;;;;;5034392;28;20532;-74
2022/11/26 14:26:06;;;;;;;0.00;0.00;;;;;;;;;;5016563;28;20109;-75
2022/11/26 14:28:32;;;;;;;0.00;0.00;;;;;;;;;;5016378;28;20109;-74
2022/11/26 14:31:21;;;;;;;0.00;0.00;;;;;;;;;;5034124;28;20030;-74
2022/11/26 14:33:49;;;;;;;0.00;0.00;;;;;;;;;;5004082;28;20045;-74
2022/11/26 14:36:22;;;;;;;0.00;0.00;;;;;;;;;;5016310;28;20026;-73
2022/11/26 14:39:07;;;;;;;0.00;0.00;;;;;;;;;;5032216;28;20111;-73
2022/11/26 14:41:43;;;;;;;0.00;0.00;;;;;;;;;;4999873;28;20026;-74
2022/11/26 14:44:13;;;;;;;0.00;0.00;;;;;;;;;;5014376;28;20116;-74
2022/11/26 14:46:40;;;;;;;0.00;0.00;;;;;;;;;;5033910;28;20033;-74
2022/11/26 14:49:27;;;;;;;0.00;0.00;;;;;;;;;;5033928;28;20037;-74
2022/11/26 14:51:53;;;;;;;0.00;0.00;;;;;;;;;;5015900;28;20061;-73
2022/11/26 14:54:25;;;;;;;0.00;0.00;;;;;;;;;;5016029;28;20121;-74
2022/11/26 14:56:51;;;;;;;0.00;0.00;;;;;;;;;;5015161;28;20029;-74
2022/11/26 14:59:18;;;;;;;0.00;0.00;;;;;;;;;;5027647;28;20096;-74